sensor_id;sensor_type;location;lat;lon;timestamp;noise_LAeq;noise_LA_min;noise_LA_max;noise_LA01;noise_LA95
66449;Laerm;56828;52.294;4.666;2022-07-12T00:00:08;37.60;34.65;41.55;;
66449;Laerm;56828;52.294;4.666;2022-07-12T00:00:19;37.61;35.08;41.19;;
66449;Laerm;56828;52.294;4.666;2022-07-12T00:00:29;38.40;35.41;41.99;;
66449;Laerm;56828;52.294;4.666;2022-07-12T00:00:39;38.61;35.20;43.29;;
66449;Laerm;56828;52.294;4.666;2022-07-12T00:00:49;37.54;34.17;42.41;;
66449;Laerm;56828;52.294;4.666;2022-07-12T00:01:00;37.27;34.06;40.96;;
66449;Laerm;56828;52.294;4.666;2022-07-12T00:01:10;37.27;34.27;40.77;;
66449;Laerm;56828;52.294;4.666;2022-07-12T00:01:21;37.84;34.70;42.11;;
66449;Laerm;56828;52.294;4.666;2022-07-12T00:01:31;37.10;33.83;41.74;;
66449;Laerm;56828;52.294;4.666;2022-07-12T00:01:41;37.15;34.51;41.11;;
66449;Laerm;56828;52.294;4.666;2022-07-12T00:01:52;37.94;34.52;41.91;;
66449;Laerm;56828;52.294;4.666;2022-07-12T00:02:03;37.32;33.88;40.84;;
66449;Laerm;56828;52.294;4.666;2022-07-12T00:02:13;38.29;35.00;41.21;;
66449;Laerm;56828;52.294;4.666;2022-07-12T00:02:24;38.39;35.43;42.20;;
66449;Laerm;56828;52.294;4.666;2022-07-12T00:02:34;38.45;35.25;42.15;;
66449;Laerm;56828;52.294;4.666;2022-07-12T00:02:44;38.01;34.55;42.69;;
66449;Laerm;56828;52.294;4.666;2022-07-12T00:02:54;36.79;33.86;40.76;;
66449;Laerm;56828;52.294;4.666;2022-07-12T00:03:05;37.28;34.07;40.65;;
66449;Laerm;56828;52.294;4.666;2022-07-12T00:03:15;37.25;34.47;39.88;;
66449;Laerm;56828;52.294;4.666;2022-07-12T00:03:25;38.39;35.56;41.58;;
66449;Laerm;56828;52.294;4.666;2022-07-12T00:03:35;38.23;35.04;41.71;;
66449;Laerm;56828;52.294;4.666;2022-07-12T00:03:46;38.27;34.89;42.95;;
66449;Laerm;56828;52.294;4.666;2022-07-12T00:03:56;37.93;34.56;41.76;;
66449;Laerm;56828;52.294;4.666;2022-07-12T00:04:06;37.96;34.12;42.99;;
66449;Laerm;56828;52.294;4.666;2022-07-12T00:04:19;38.32;34.10;42.72;;
66449;Laerm;56828;52.294;4.666;2022-07-12T00:04:29;38.80;35.33;42.65;;
66449;Laerm;56828;52.294;4.666;2022-07-12T00:04:39;39.28;35.84;42.69;;
66449;Laerm;56828;52.294;4.666;2022-07-12T00:04:50;39.32;36.12;42.55;;
66449;Laerm;56828;52.294;4.666;2022-07-12T00:05:03;38.03;33.67;41.86;;
66449;Laerm;56828;52.294;4.666;2022-07-12T00:05:13;37.50;34.36;42.36;;
66449;Laerm;56828;52.294;4.666;2022-07-12T00:05:24;37.79;33.46;43.34;;
66449;Laerm;56828;52.294;4.666;2022-07-12T00:05:34;37.91;34.82;42.05;;
66449;Laerm;56828;52.294;4.666;2022-07-12T00:05:44;37.06;33.34;41.99;;
66449;Laerm;56828;52.294;4.666;2022-07-12T00:05:55;38.14;33.93;42.12;;
66449;Laerm;56828;52.294;4.666;2022-07-12T00:06:06;37.43;33.61;42.25;;
66449;Laerm;56828;52.294;4.666;2022-07-12T00:06:16;37.04;33.13;41.48;;
66449;Laerm;56828;52.294;4.666;2022-07-12T00:06:26;36.84;32.88;41.55;;
66449;Laerm;56828;52.294;4.666;2022-07-12T00:06:37;37.42;33.33;42.96;;
66449;Laerm;56828;52.294;4.666;2022-07-12T00:06:47;37.83;34.20;42.97;;
66449;Laerm;56828;52.294;4.666;2022-07-12T00:07:01;36.95;33.75;43.03;;
66449;Laerm;56828;52.294;4.666;2022-07-12T00:07:11;37.81;34.41;43.53;;
66449;Laerm;56828;52.294;4.666;2022-07-12T00:07:22;38.24;34.89;43.02;;
66449;Laerm;56828;52.294;4.666;2022-07-12T00:07:32;37.37;34.02;41.78;;
66449;Laerm;56828;52.294;4.666;2022-07-12T00:07:42;37.81;33.62;41.98;;
66449;Laerm;56828;52.294;4.666;2022-07-12T00:07:53;38.18;34.07;42.09;;
66449;Laerm;56828;52.294;4.666;2022-07-12T00:08:03;37.08;33.47;43.11;;
66449;Laerm;56828;52.294;4.666;2022-07-12T00:08:14;38.01;34.50;42.63;;
66449;Laerm;56828;52.294;4.666;2022-07-12T00:08:24;38.38;33.97;43.00;;
66449;Laerm;56828;52.294;4.666;2022-07-12T00:08:34;39.16;33.63;44.98;;
66449;Laerm;56828;52.294;4.666;2022-07-12T00:08:45;36.69;32.80;42.28;;
66449;Laerm;56828;52.294;4.666;2022-07-12T00:08:55;36.32;33.25;42.23;;
66449;Laerm;56828;52.294;4.666;2022-07-12T00:09:05;37.06;33.25;43.40;;
66449;Laerm;56828;52.294;4.666;2022-07-12T00:09:15;38.37;33.74;44.16;;
66449;Laerm;56828;52.294;4.666;2022-07-12T00:09:25;37.83;33.80;42.84;;
66449;Laerm;56828;52.294;4.666;2022-07-12T00:09:36;38.24;33.05;43.52;;
66449;Laerm;56828;52.294;4.666;2022-07-12T00:09:46;37.26;33.42;43.65;;
66449;Laerm;56828;52.294;4.666;2022-07-12T00:09:56;38.01;33.46;45.89;;
66449;Laerm;56828;52.294;4.666;2022-07-12T00:10:06;37.42;34.05;41.92;;
66449;Laerm;56828;52.294;4.666;2022-07-12T00:10:17;36.14;33.39;40.64;;
66449;Laerm;56828;52.294;4.666;2022-07-12T00:10:27;35.34;33.28;40.75;;
66449;Laerm;56828;52.294;4.666;2022-07-12T00:10:37;35.15;33.28;38.71;;
66449;Laerm;56828;52.294;4.666;2022-07-12T00:10:47;37.05;34.30;40.85;;
66449;Laerm;56828;52.294;4.666;2022-07-12T00:10:58;37.38;34.19;41.34;;
66449;Laerm;56828;52.294;4.666;2022-07-12T00:11:08;35.57;33.74;37.74;;
66449;Laerm;56828;52.294;4.666;2022-07-12T00:11:19;35.20;33.09;38.53;;
66449;Laerm;56828;52.294;4.666;2022-07-12T00:11:29;36.24;33.26;40.96;;
66449;Laerm;56828;52.294;4.666;2022-07-12T00:11:40;36.14;33.86;40.43;;
66449;Laerm;56828;52.294;4.666;2022-07-12T00:11:52;36.20;33.16;39.79;;
66449;Laerm;56828;52.294;4.666;2022-07-12T00:12:02;37.44;34.28;41.78;;
66449;Laerm;56828;52.294;4.666;2022-07-12T00:12:12;37.16;34.42;40.55;;
66449;Laerm;56828;52.294;4.666;2022-07-12T00:12:23;36.90;34.20;41.37;;
66449;Laerm;56828;52.294;4.666;2022-07-12T00:12:33;36.16;33.31;40.01;;
66449;Laerm;56828;52.294;4.666;2022-07-12T00:12:43;37.36;34.21;42.67;;
66449;Laerm;56828;52.294;4.666;2022-07-12T00:12:53;37.31;34.32;42.50;;
66449;Laerm;56828;52.294;4.666;2022-07-12T00:13:04;36.94;34.40;40.72;;
66449;Laerm;56828;52.294;4.666;2022-07-12T00:13:14;35.99;33.45;40.86;;
66449;Laerm;56828;52.294;4.666;2022-07-12T00:13:25;36.44;33.35;40.61;;
66449;Laerm;56828;52.294;4.666;2022-07-12T00:13:36;36.20;33.90;38.32;;
66449;Laerm;56828;52.294;4.666;2022-07-12T00:13:46;36.27;33.76;39.06;;
66449;Laerm;56828;52.294;4.666;2022-07-12T00:13:56;35.62;33.39;38.99;;
66449;Laerm;56828;52.294;4.666;2022-07-12T00:14:06;36.38;33.62;40.46;;
66449;Laerm;56828;52.294;4.666;2022-07-12T00:14:17;36.49;33.41;39.35;;
66449;Laerm;56828;52.294;4.666;2022-07-12T00:14:27;34.73;33.00;37.19;;
66449;Laerm;56828;52.294;4.666;2022-07-12T00:14:40;35.01;33.04;37.87;;
66449;Laerm;56828;52.294;4.666;2022-07-12T00:14:50;35.12;32.89;37.81;;
66449;Laerm;56828;52.294;4.666;2022-07-12T00:15:01;35.74;33.96;38.64;;
66449;Laerm;56828;52.294;4.666;2022-07-12T00:15:11;36.76;34.35;38.70;;
66449;Laerm;56828;52.294;4.666;2022-07-12T00:15:21;38.73;35.15;42.22;;
66449;Laerm;56828;52.294;4.666;2022-07-12T00:15:31;36.80;33.44;41.39;;
66449;Laerm;56828;52.294;4.666;2022-07-12T00:15:42;37.56;34.30;42.36;;
66449;Laerm;56828;52.294;4.666;2022-07-12T00:15:52;37.22;34.10;41.21;;
66449;Laerm;56828;52.294;4.666;2022-07-12T00:16:03;35.13;33.21;37.72;;
66449;Laerm;56828;52.294;4.666;2022-07-12T00:16:13;34.88;32.56;37.71;;
66449;Laerm;56828;52.294;4.666;2022-07-12T00:16:23;35.52;33.19;38.40;;
66449;Laerm;56828;52.294;4.666;2022-07-12T00:16:33;35.54;33.39;38.81;;
66449;Laerm;56828;52.294;4.666;2022-07-12T00:16:44;37.66;33.54;41.62;;
66449;Laerm;56828;52.294;4.666;2022-07-12T00:16:54;36.82;33.88;40.20;;
66449;Laerm;56828;52.294;4.666;2022-07-12T00:17:04;36.28;33.67;47.38;;
66449;Laerm;56828;52.294;4.666;2022-07-12T00:17:14;36.53;34.18;40.05;;
66449;Laerm;56828;52.294;4.666;2022-07-12T00:17:25;38.32;34.81;43.48;;
66449;Laerm;56828;52.294;4.666;2022-07-12T00:17:35;36.84;34.32;40.81;;
66449;Laerm;56828;52.294;4.666;2022-07-12T00:17:45;35.51;33.21;37.93;;
66449;Laerm;56828;52.294;4.666;2022-07-12T00:17:55;36.97;34.10;40.25;;
66449;Laerm;56828;52.294;4.666;2022-07-12T00:18:06;38.37;34.93;42.80;;
66449;Laerm;56828;52.294;4.666;2022-07-12T00:18:16;36.89;32.55;40.84;;
66449;Laerm;56828;52.294;4.666;2022-07-12T00:18:26;35.26;32.61;37.71;;
66449;Laerm;56828;52.294;4.666;2022-07-12T00:18:36;35.96;33.37;38.81;;
66449;Laerm;56828;52.294;4.666;2022-07-12T00:18:47;36.70;34.41;38.91;;
66449;Laerm;56828;52.294;4.666;2022-07-12T00:18:57;39.30;35.50;44.08;;
66449;Laerm;56828;52.294;4.666;2022-07-12T00:19:07;41.40;38.82;43.96;;
66449;Laerm;56828;52.294;4.666;2022-07-12T00:19:18;40.12;36.35;43.21;;
66449;Laerm;56828;52.294;4.666;2022-07-12T00:19:29;35.95;33.81;38.25;;
66449;Laerm;56828;52.294;4.666;2022-07-12T00:19:39;35.89;34.20;38.16;;
66449;Laerm;56828;52.294;4.666;2022-07-12T00:19:49;37.58;34.74;42.82;;
66449;Laerm;56828;52.294;4.666;2022-07-12T00:19:59;38.38;35.82;41.92;;
66449;Laerm;56828;52.294;4.666;2022-07-12T00:20:10;37.71;35.72;39.92;;
66449;Laerm;56828;52.294;4.666;2022-07-12T00:20:20;36.72;34.26;38.88;;
66449;Laerm;56828;52.294;4.666;2022-07-12T00:20:30;35.34;33.39;37.15;;
66449;Laerm;56828;52.294;4.666;2022-07-12T00:20:43;37.14;33.23;41.65;;
66449;Laerm;56828;52.294;4.666;2022-07-12T00:20:53;37.78;34.07;41.68;;
66449;Laerm;56828;52.294;4.666;2022-07-12T00:21:04;36.68;34.58;39.93;;
66449;Laerm;56828;52.294;4.666;2022-07-12T00:21:15;35.99;33.59;39.05;;
66449;Laerm;56828;52.294;4.666;2022-07-12T00:21:25;35.15;33.36;37.53;;
66449;Laerm;56828;52.294;4.666;2022-07-12T00:21:35;35.42;33.27;37.73;;
66449;Laerm;56828;52.294;4.666;2022-07-12T00:21:45;35.70;33.71;37.55;;
66449;Laerm;56828;52.294;4.666;2022-07-12T00:21:56;35.70;33.78;38.10;;
66449;Laerm;56828;52.294;4.666;2022-07-12T00:22:06;36.56;33.78;40.80;;
66449;Laerm;56828;52.294;4.666;2022-07-12T00:22:16;38.06;34.45;43.41;;
66449;Laerm;56828;52.294;4.666;2022-07-12T00:22:26;37.65;34.43;41.43;;
66449;Laerm;56828;52.294;4.666;2022-07-12T00:22:38;37.32;33.81;41.22;;
66449;Laerm;56828;52.294;4.666;2022-07-12T00:22:48;36.48;33.92;39.56;;
66449;Laerm;56828;52.294;4.666;2022-07-12T00:22:59;36.94;34.71;39.42;;
66449;Laerm;56828;52.294;4.666;2022-07-12T00:23:09;36.26;33.94;38.85;;
66449;Laerm;56828;52.294;4.666;2022-07-12T00:23:20;35.96;34.13;37.64;;
66449;Laerm;56828;52.294;4.666;2022-07-12T00:23:30;37.64;35.07;40.14;;
66449;Laerm;56828;52.294;4.666;2022-07-12T00:23:40;39.14;36.51;41.84;;
66449;Laerm;56828;52.294;4.666;2022-07-12T00:23:50;39.05;36.73;43.02;;
66449;Laerm;56828;52.294;4.666;2022-07-12T00:24:01;38.15;36.14;40.79;;
66449;Laerm;56828;52.294;4.666;2022-07-12T00:24:11;38.02;36.20;39.77;;
66449;Laerm;56828;52.294;4.666;2022-07-12T00:24:21;39.05;36.82;41.33;;
66449;Laerm;56828;52.294;4.666;2022-07-12T00:24:31;39.20;35.52;43.56;;
66449;Laerm;56828;52.294;4.666;2022-07-12T00:24:41;44.24;37.07;53.12;;
66449;Laerm;56828;52.294;4.666;2022-07-12T00:24:52;39.44;36.24;42.64;;
66449;Laerm;56828;52.294;4.666;2022-07-12T00:25:02;39.80;35.44;44.01;;
66449;Laerm;56828;52.294;4.666;2022-07-12T00:25:12;45.32;38.34;50.08;;
66449;Laerm;56828;52.294;4.666;2022-07-12T00:25:24;48.04;39.34;55.84;;
66449;Laerm;56828;52.294;4.666;2022-07-12T00:25:35;44.65;37.10;52.84;;
66449;Laerm;56828;52.294;4.666;2022-07-12T00:25:46;40.02;36.45;44.34;;
66449;Laerm;56828;52.294;4.666;2022-07-12T00:25:56;39.37;35.81;42.76;;
66449;Laerm;56828;52.294;4.666;2022-07-12T00:26:06;38.56;35.71;41.16;;
66449;Laerm;56828;52.294;4.666;2022-07-12T00:26:16;38.75;35.10;42.05;;
66449;Laerm;56828;52.294;4.666;2022-07-12T00:26:27;38.47;35.41;41.75;;
66449;Laerm;56828;52.294;4.666;2022-07-12T00:26:37;38.68;35.67;41.30;;
66449;Laerm;56828;52.294;4.666;2022-07-12T00:26:47;39.14;36.35;42.17;;
66449;Laerm;56828;52.294;4.666;2022-07-12T00:26:57;39.03;36.84;41.86;;
66449;Laerm;56828;52.294;4.666;2022-07-12T00:27:08;39.39;36.53;42.99;;
66449;Laerm;56828;52.294;4.666;2022-07-12T00:27:18;39.09;36.69;42.70;;
66449;Laerm;56828;52.294;4.666;2022-07-12T00:27:28;38.72;36.57;41.47;;
66449;Laerm;56828;52.294;4.666;2022-07-12T00:27:39;38.42;36.05;41.26;;
66449;Laerm;56828;52.294;4.666;2022-07-12T00:27:49;38.95;36.51;41.69;;
66449;Laerm;56828;52.294;4.666;2022-07-12T00:28:00;38.79;34.55;41.64;;
66449;Laerm;56828;52.294;4.666;2022-07-12T00:28:10;38.07;35.20;42.13;;
66449;Laerm;56828;52.294;4.666;2022-07-12T00:28:21;38.39;35.95;41.85;;
66449;Laerm;56828;52.294;4.666;2022-07-12T00:28:31;38.67;35.93;41.81;;
66449;Laerm;56828;52.294;4.666;2022-07-12T00:28:41;38.41;35.75;42.28;;
66449;Laerm;56828;52.294;4.666;2022-07-12T00:28:52;39.21;35.50;43.88;;
66449;Laerm;56828;52.294;4.666;2022-07-12T00:29:02;38.26;35.71;42.44;;
66449;Laerm;56828;52.294;4.666;2022-07-12T00:29:12;38.54;35.33;42.33;;
66449;Laerm;56828;52.294;4.666;2022-07-12T00:29:23;38.46;36.05;42.37;;
66449;Laerm;56828;52.294;4.666;2022-07-12T00:29:33;37.45;35.03;39.39;;
66449;Laerm;56828;52.294;4.666;2022-07-12T00:29:44;37.38;34.81;40.87;;
66449;Laerm;56828;52.294;4.666;2022-07-12T00:29:54;37.07;34.24;40.16;;
66449;Laerm;56828;52.294;4.666;2022-07-12T00:30:04;37.72;35.05;41.22;;
66449;Laerm;56828;52.294;4.666;2022-07-12T00:30:15;37.55;34.90;41.47;;
66449;Laerm;56828;52.294;4.666;2022-07-12T00:30:25;38.44;34.76;47.19;;
66449;Laerm;56828;52.294;4.666;2022-07-12T00:30:36;37.39;34.42;40.83;;
66449;Laerm;56828;52.294;4.666;2022-07-12T00:30:46;37.16;34.42;39.38;;
66449;Laerm;56828;52.294;4.666;2022-07-12T00:30:57;37.73;34.81;42.47;;
66449;Laerm;56828;52.294;4.666;2022-07-12T00:31:07;37.48;35.58;39.97;;
66449;Laerm;56828;52.294;4.666;2022-07-12T00:31:17;37.34;35.40;40.03;;
66449;Laerm;56828;52.294;4.666;2022-07-12T00:31:28;37.88;35.35;41.12;;
66449;Laerm;56828;52.294;4.666;2022-07-12T00:31:38;37.03;33.91;39.56;;
66449;Laerm;56828;52.294;4.666;2022-07-12T00:31:48;35.39;33.31;37.24;;
66449;Laerm;56828;52.294;4.666;2022-07-12T00:31:58;35.98;33.91;37.72;;
66449;Laerm;56828;52.294;4.666;2022-07-12T00:32:08;36.06;33.88;38.33;;
66449;Laerm;56828;52.294;4.666;2022-07-12T00:32:19;36.03;33.96;37.89;;
66449;Laerm;56828;52.294;4.666;2022-07-12T00:32:29;36.33;34.47;38.25;;
66449;Laerm;56828;52.294;4.666;2022-07-12T00:32:40;36.63;34.20;38.70;;
66449;Laerm;56828;52.294;4.666;2022-07-12T00:32:50;36.98;34.96;39.78;;
66449;Laerm;56828;52.294;4.666;2022-07-12T00:33:00;36.46;34.40;39.97;;
66449;Laerm;56828;52.294;4.666;2022-07-12T00:33:11;36.41;33.59;39.39;;
66449;Laerm;56828;52.294;4.666;2022-07-12T00:33:21;37.13;34.72;41.03;;
66449;Laerm;56828;52.294;4.666;2022-07-12T00:33:31;38.18;35.44;41.92;;
66449;Laerm;56828;52.294;4.666;2022-07-12T00:33:41;38.04;34.55;41.93;;
66449;Laerm;56828;52.294;4.666;2022-07-12T00:33:52;36.65;34.52;40.87;;
66449;Laerm;56828;52.294;4.666;2022-07-12T00:34:02;36.31;34.23;37.96;;
66449;Laerm;56828;52.294;4.666;2022-07-12T00:34:12;37.79;34.96;41.07;;
66449;Laerm;56828;52.294;4.666;2022-07-12T00:34:22;36.62;34.06;38.77;;
66449;Laerm;56828;52.294;4.666;2022-07-12T00:34:33;35.89;33.61;38.02;;
66449;Laerm;56828;52.294;4.666;2022-07-12T00:34:43;36.12;33.85;39.01;;
66449;Laerm;56828;52.294;4.666;2022-07-12T00:34:53;35.50;33.41;37.78;;
66449;Laerm;56828;52.294;4.666;2022-07-12T00:35:04;35.26;33.25;37.35;;
66449;Laerm;56828;52.294;4.666;2022-07-12T00:35:15;36.42;34.16;39.12;;
66449;Laerm;56828;52.294;4.666;2022-07-12T00:35:26;35.62;33.52;37.75;;
66449;Laerm;56828;52.294;4.666;2022-07-12T00:35:36;35.65;33.54;38.51;;
66449;Laerm;56828;52.294;4.666;2022-07-12T00:35:46;35.56;33.55;37.58;;
66449;Laerm;56828;52.294;4.666;2022-07-12T00:35:57;35.07;32.56;37.09;;
66449;Laerm;56828;52.294;4.666;2022-07-12T00:36:07;35.19;33.43;37.13;;
66449;Laerm;56828;52.294;4.666;2022-07-12T00:36:17;34.98;32.77;36.88;;
66449;Laerm;56828;52.294;4.666;2022-07-12T00:36:29;34.92;32.95;38.26;;
66449;Laerm;56828;52.294;4.666;2022-07-12T00:36:39;36.38;33.14;41.19;;
66449;Laerm;56828;52.294;4.666;2022-07-12T00:36:49;36.53;32.93;41.61;;
66449;Laerm;56828;52.294;4.666;2022-07-12T00:36:59;35.94;33.54;40.64;;
66449;Laerm;56828;52.294;4.666;2022-07-12T00:37:10;35.01;32.60;37.63;;
66449;Laerm;56828;52.294;4.666;2022-07-12T00:37:20;34.64;32.87;38.05;;
66449;Laerm;56828;52.294;4.666;2022-07-12T00:37:30;34.83;32.85;36.44;;
66449;Laerm;56828;52.294;4.666;2022-07-12T00:37:41;35.06;33.16;36.67;;
66449;Laerm;56828;52.294;4.666;2022-07-12T00:37:51;34.53;32.36;36.55;;
66449;Laerm;56828;52.294;4.666;2022-07-12T00:38:01;34.53;32.27;36.41;;
66449;Laerm;56828;52.294;4.666;2022-07-12T00:38:12;36.17;33.54;40.79;;
66449;Laerm;56828;52.294;4.666;2022-07-12T00:38:22;36.53;33.61;40.83;;
66449;Laerm;56828;52.294;4.666;2022-07-12T00:38:32;35.71;32.85;38.73;;
66449;Laerm;56828;52.294;4.666;2022-07-12T00:38:42;35.25;32.59;38.13;;
66449;Laerm;56828;52.294;4.666;2022-07-12T00:38:52;35.70;33.50;38.24;;
66449;Laerm;56828;52.294;4.666;2022-07-12T00:39:03;37.35;34.32;42.10;;
66449;Laerm;56828;52.294;4.666;2022-07-12T00:39:13;36.04;33.49;39.72;;
66449;Laerm;56828;52.294;4.666;2022-07-12T00:39:23;35.53;33.81;38.06;;
66449;Laerm;56828;52.294;4.666;2022-07-12T00:39:34;35.47;33.41;37.73;;
66449;Laerm;56828;52.294;4.666;2022-07-12T00:39:44;35.55;33.46;37.41;;
66449;Laerm;56828;52.294;4.666;2022-07-12T00:39:54;36.80;34.42;39.22;;
66449;Laerm;56828;52.294;4.666;2022-07-12T00:40:06;37.57;34.40;40.30;;
66449;Laerm;56828;52.294;4.666;2022-07-12T00:40:17;37.58;34.23;41.54;;
66449;Laerm;56828;52.294;4.666;2022-07-12T00:40:27;37.60;33.81;42.04;;
66449;Laerm;56828;52.294;4.666;2022-07-12T00:40:49;36.17;33.19;40.46;;
66449;Laerm;56828;52.294;4.666;2022-07-12T00:41:00;35.60;33.05;38.34;;
66449;Laerm;56828;52.294;4.666;2022-07-12T00:41:10;36.61;34.09;39.59;;
66449;Laerm;56828;52.294;4.666;2022-07-12T00:41:20;35.98;34.13;38.34;;
66449;Laerm;56828;52.294;4.666;2022-07-12T00:41:30;37.09;34.75;40.00;;
66449;Laerm;56828;52.294;4.666;2022-07-12T00:41:41;36.45;33.97;39.41;;
66449;Laerm;56828;52.294;4.666;2022-07-12T00:41:52;36.62;33.71;40.55;;
66449;Laerm;56828;52.294;4.666;2022-07-12T00:42:02;35.83;33.43;38.05;;
66449;Laerm;56828;52.294;4.666;2022-07-12T00:42:13;36.00;34.35;38.17;;
66449;Laerm;56828;52.294;4.666;2022-07-12T00:42:24;35.27;33.60;36.85;;
66449;Laerm;56828;52.294;4.666;2022-07-12T00:42:35;36.03;33.62;38.34;;
66449;Laerm;56828;52.294;4.666;2022-07-12T00:42:45;35.82;33.39;38.07;;
66449;Laerm;56828;52.294;4.666;2022-07-12T00:42:55;35.88;33.84;37.69;;
66449;Laerm;56828;52.294;4.666;2022-07-12T00:43:05;35.92;33.89;38.08;;
66449;Laerm;56828;52.294;4.666;2022-07-12T00:43:16;36.12;33.95;38.07;;
66449;Laerm;56828;52.294;4.666;2022-07-12T00:43:26;36.47;34.22;39.59;;
66449;Laerm;56828;52.294;4.666;2022-07-12T00:43:36;36.65;34.32;39.47;;
66449;Laerm;56828;52.294;4.666;2022-07-12T00:43:46;37.63;35.00;41.10;;
66449;Laerm;56828;52.294;4.666;2022-07-12T00:43:56;36.09;34.07;39.13;;
66449;Laerm;56828;52.294;4.666;2022-07-12T00:44:07;35.96;34.03;38.48;;
66449;Laerm;56828;52.294;4.666;2022-07-12T00:44:17;35.86;33.74;37.47;;
66449;Laerm;56828;52.294;4.666;2022-07-12T00:44:27;35.52;33.43;37.82;;
66449;Laerm;56828;52.294;4.666;2022-07-12T00:44:40;35.16;33.02;37.48;;
66449;Laerm;56828;52.294;4.666;2022-07-12T00:44:50;35.11;33.46;37.40;;
66449;Laerm;56828;52.294;4.666;2022-07-12T00:45:01;35.31;33.12;37.58;;
66449;Laerm;56828;52.294;4.666;2022-07-12T00:45:12;35.52;33.24;39.42;;
66449;Laerm;56828;52.294;4.666;2022-07-12T00:45:22;35.07;33.04;37.04;;
66449;Laerm;56828;52.294;4.666;2022-07-12T00:45:32;35.58;33.23;37.33;;
66449;Laerm;56828;52.294;4.666;2022-07-12T00:45:42;35.23;32.69;37.15;;
66449;Laerm;56828;52.294;4.666;2022-07-12T00:45:53;35.04;33.11;37.26;;
66449;Laerm;56828;52.294;4.666;2022-07-12T00:46:03;35.48;33.69;37.69;;
66449;Laerm;56828;52.294;4.666;2022-07-12T00:46:14;35.35;33.74;37.33;;
66449;Laerm;56828;52.294;4.666;2022-07-12T00:46:24;35.22;33.38;36.89;;
66449;Laerm;56828;52.294;4.666;2022-07-12T00:46:34;34.80;33.08;36.73;;
66449;Laerm;56828;52.294;4.666;2022-07-12T00:46:45;35.20;33.45;36.80;;
66449;Laerm;56828;52.294;4.666;2022-07-12T00:46:55;36.07;33.96;39.37;;
66449;Laerm;56828;52.294;4.666;2022-07-12T00:47:16;36.05;34.40;37.84;;
66449;Laerm;56828;52.294;4.666;2022-07-12T00:47:37;36.04;33.58;38.73;;
66449;Laerm;56828;52.294;4.666;2022-07-12T00:47:48;35.28;32.67;38.91;;
66449;Laerm;56828;52.294;4.666;2022-07-12T00:47:59;35.96;32.68;40.09;;
66449;Laerm;56828;52.294;4.666;2022-07-12T00:48:10;36.77;33.43;40.49;;
66449;Laerm;56828;52.294;4.666;2022-07-12T00:48:20;37.24;34.22;40.71;;
66449;Laerm;56828;52.294;4.666;2022-07-12T00:48:34;37.35;33.86;40.83;;
66449;Laerm;56828;52.294;4.666;2022-07-12T00:48:45;36.14;32.72;40.76;;
66449;Laerm;56828;52.294;4.666;2022-07-12T00:48:55;34.58;32.88;36.50;;
66449;Laerm;56828;52.294;4.666;2022-07-12T00:49:05;37.15;32.69;42.59;;
66449;Laerm;56828;52.294;4.666;2022-07-12T00:49:16;36.14;32.53;40.90;;
66449;Laerm;56828;52.294;4.666;2022-07-12T00:49:26;34.37;32.54;36.26;;
66449;Laerm;56828;52.294;4.666;2022-07-12T00:49:36;34.70;32.79;36.76;;
66449;Laerm;56828;52.294;4.666;2022-07-12T00:49:47;34.84;32.82;36.56;;
66449;Laerm;56828;52.294;4.666;2022-07-12T00:49:57;34.81;32.96;36.94;;
66449;Laerm;56828;52.294;4.666;2022-07-12T00:50:09;35.00;33.07;37.16;;
66449;Laerm;56828;52.294;4.666;2022-07-12T00:50:20;35.14;33.11;37.91;;
66449;Laerm;56828;52.294;4.666;2022-07-12T00:50:31;35.55;33.17;39.35;;
66449;Laerm;56828;52.294;4.666;2022-07-12T00:50:41;37.98;33.71;42.87;;
66449;Laerm;56828;52.294;4.666;2022-07-12T00:50:52;37.23;34.29;41.93;;
66449;Laerm;56828;52.294;4.666;2022-07-12T00:51:02;36.83;34.84;40.34;;
66449;Laerm;56828;52.294;4.666;2022-07-12T00:51:12;37.07;34.12;41.36;;
66449;Laerm;56828;52.294;4.666;2022-07-12T00:51:23;36.25;33.46;40.06;;
66449;Laerm;56828;52.294;4.666;2022-07-12T00:51:35;36.41;34.08;39.80;;
66449;Laerm;56828;52.294;4.666;2022-07-12T00:51:46;37.78;33.10;41.45;;
66449;Laerm;56828;52.294;4.666;2022-07-12T00:51:56;35.81;33.62;38.93;;
66449;Laerm;56828;52.294;4.666;2022-07-12T00:52:06;35.36;33.38;37.51;;
66449;Laerm;56828;52.294;4.666;2022-07-12T00:52:17;35.91;33.27;38.90;;
66449;Laerm;56828;52.294;4.666;2022-07-12T00:52:27;42.07;34.88;51.33;;
66449;Laerm;56828;52.294;4.666;2022-07-12T00:52:38;45.54;40.92;50.68;;
66449;Laerm;56828;52.294;4.666;2022-07-12T00:52:49;49.36;42.12;52.37;;
66449;Laerm;56828;52.294;4.666;2022-07-12T00:53:00;40.02;35.95;43.49;;
66449;Laerm;56828;52.294;4.666;2022-07-12T00:53:10;37.12;34.11;39.88;;
66449;Laerm;56828;52.294;4.666;2022-07-12T00:53:20;39.68;35.33;45.42;;
66449;Laerm;56828;52.294;4.666;2022-07-12T00:53:34;36.70;34.06;40.64;;
66449;Laerm;56828;52.294;4.666;2022-07-12T00:53:46;35.57;33.18;38.12;;
66449;Laerm;56828;52.294;4.666;2022-07-12T00:53:57;36.37;33.47;39.96;;
66449;Laerm;56828;52.294;4.666;2022-07-12T00:54:08;37.15;33.96;39.89;;
66449;Laerm;56828;52.294;4.666;2022-07-12T00:54:19;35.91;33.04;39.60;;
66449;Laerm;56828;52.294;4.666;2022-07-12T00:54:30;36.20;34.02;39.09;;
66449;Laerm;56828;52.294;4.666;2022-07-12T00:54:40;35.89;33.86;38.44;;
66449;Laerm;56828;52.294;4.666;2022-07-12T00:54:50;36.05;33.63;38.77;;
66449;Laerm;56828;52.294;4.666;2022-07-12T00:55:00;35.40;32.84;37.41;;
66449;Laerm;56828;52.294;4.666;2022-07-12T00:55:11;36.05;33.63;39.92;;
66449;Laerm;56828;52.294;4.666;2022-07-12T00:55:22;36.16;33.56;39.77;;
66449;Laerm;56828;52.294;4.666;2022-07-12T00:55:33;35.94;32.89;39.09;;
66449;Laerm;56828;52.294;4.666;2022-07-12T00:55:43;35.87;32.59;40.29;;
66449;Laerm;56828;52.294;4.666;2022-07-12T00:55:56;36.97;33.88;40.78;;
66449;Laerm;56828;52.294;4.666;2022-07-12T00:56:06;36.67;32.70;51.92;;
66449;Laerm;56828;52.294;4.666;2022-07-12T00:56:17;36.10;32.57;40.76;;
66449;Laerm;56828;52.294;4.666;2022-07-12T00:56:27;36.02;32.79;40.12;;
66449;Laerm;56828;52.294;4.666;2022-07-12T00:56:37;36.78;33.22;40.66;;
66449;Laerm;56828;52.294;4.666;2022-07-12T00:56:48;36.51;33.97;39.79;;
66449;Laerm;56828;52.294;4.666;2022-07-12T00:56:58;35.77;33.77;37.92;;
66449;Laerm;56828;52.294;4.666;2022-07-12T00:57:09;34.98;32.75;37.17;;
66449;Laerm;56828;52.294;4.666;2022-07-12T00:57:19;34.25;32.35;36.23;;
66449;Laerm;56828;52.294;4.666;2022-07-12T00:57:31;34.56;32.74;36.90;;
66449;Laerm;56828;52.294;4.666;2022-07-12T00:57:41;35.15;32.49;37.23;;
66449;Laerm;56828;52.294;4.666;2022-07-12T00:57:54;35.50;32.89;38.74;;
66449;Laerm;56828;52.294;4.666;2022-07-12T00:58:05;36.11;33.13;39.03;;
66449;Laerm;56828;52.294;4.666;2022-07-12T00:58:15;37.98;34.03;43.23;;
66449;Laerm;56828;52.294;4.666;2022-07-12T00:58:25;41.36;37.10;44.51;;
66449;Laerm;56828;52.294;4.666;2022-07-12T00:58:36;44.42;39.34;49.03;;
66449;Laerm;56828;52.294;4.666;2022-07-12T00:58:47;51.42;44.33;56.73;;
66449;Laerm;56828;52.294;4.666;2022-07-12T00:59:00;58.61;52.98;62.41;;
66449;Laerm;56828;52.294;4.666;2022-07-12T00:59:10;58.79;54.58;61.90;;
66449;Laerm;56828;52.294;4.666;2022-07-12T00:59:20;57.00;53.73;59.51;;